createdAt,value
2022-10-19T00:00:25.381Z,13.32
2022-10-19T00:01:27.530Z,13.33
2022-10-19T00:02:29.750Z,13.41
2022-10-19T00:03:32.376Z,13.47
2022-10-19T00:04:34.870Z,13.55
2022-10-19T00:05:37.047Z,13.62
2022-10-19T00:06:39.316Z,13.65
2022-10-19T00:07:41.452Z,13.68
2022-10-19T00:08:44.222Z,13.74
2022-10-19T00:09:46.496Z,13.71
2022-10-19T00:10:48.682Z,13.74
2022-10-19T00:11:51.185Z,13.73
2022-10-19T00:12:53.345Z,13.76
2022-10-19T00:13:56.996Z,13.71
2022-10-19T00:14:59.328Z,13.75
2022-10-19T00:16:02.061Z,13.75
2022-10-19T00:17:04.236Z,13.77
2022-10-19T00:18:07.900Z,13.69
2022-10-19T00:19:14.791Z,13.56
2022-10-19T00:20:17.027Z,13.48
2022-10-19T00:21:19.777Z,13.50
2022-10-19T00:22:22.476Z,13.53
2022-10-19T00:23:24.641Z,13.54
2022-10-19T00:24:26.809Z,13.60
2022-10-19T00:25:28.968Z,13.60
2022-10-19T00:26:32.034Z,13.58
2022-10-19T00:27:35.642Z,13.56
2022-10-19T00:28:38.001Z,13.61
2022-10-19T00:29:40.399Z,13.61
2022-10-19T00:30:42.589Z,13.60
2022-10-19T00:31:44.896Z,13.53
2022-10-19T00:32:47.116Z,13.55
2022-10-19T00:33:49.438Z,13.61
2022-10-19T00:34:51.580Z,13.61
2022-10-19T00:35:53.740Z,13.58
2022-10-19T00:36:55.887Z,13.63
2022-10-19T00:37:58.043Z,13.64
2022-10-19T00:39:01.174Z,13.68
2022-10-19T00:40:03.603Z,13.74
2022-10-19T00:41:05.830Z,13.76
2022-10-19T00:42:12.141Z,13.77
2022-10-19T00:43:20.223Z,13.75
2022-10-19T00:44:42.531Z,13.74
2022-10-19T00:45:44.838Z,13.72
2022-10-19T00:46:51.634Z,13.76
2022-10-19T00:47:54.337Z,13.77
2022-10-19T00:49:10.051Z,13.78
2022-10-19T00:50:14.547Z,13.68
2022-10-19T00:51:17.238Z,13.73
2022-10-19T00:52:22.064Z,13.73
2022-10-19T00:53:26.657Z,13.68
2022-10-19T00:54:31.276Z,13.67
2022-10-19T00:55:34.528Z,13.64
2022-10-19T00:56:40.612Z,13.65
2022-10-19T00:57:42.846Z,13.57
2022-10-19T00:58:45.773Z,13.48
2022-10-19T00:59:48.167Z,13.45
2022-10-19T01:00:50.505Z,13.33
2022-10-19T01:01:53.766Z,13.27
2022-10-19T01:02:56.465Z,13.17
2022-10-19T01:03:59.053Z,13.24
2022-10-19T01:05:01.801Z,13.21
2022-10-19T01:06:04.231Z,13.26
2022-10-19T01:07:08.184Z,13.36
2022-10-19T01:08:11.686Z,13.39
2022-10-19T01:09:13.914Z,13.31
2022-10-19T01:10:16.399Z,13.41
2022-10-19T01:11:40.284Z,13.21
2022-10-19T01:13:02.685Z,13.18
2022-10-19T01:14:38.729Z,13.21
2022-10-19T01:15:57.555Z,13.29
2022-10-19T01:17:24.301Z,13.18
2022-10-19T01:18:53.526Z,13.25
2022-10-19T01:20:07.524Z,13.02
2022-10-19T01:21:09.710Z,13.04
2022-10-19T01:22:24.335Z,13.04
2022-10-19T01:23:53.199Z,13.00
2022-10-19T01:25:22.913Z,13.09
2022-10-19T01:27:12.404Z,13.22
2022-10-19T01:28:37.498Z,13.23
2022-10-19T01:30:06.876Z,13.32
2022-10-19T01:31:29.250Z,13.30
2022-10-19T01:32:46.312Z,13.33
2022-10-19T01:34:14.927Z,13.39
2022-10-19T01:35:28.630Z,13.45
2022-10-19T01:36:47.120Z,13.39
2022-10-19T01:37:55.022Z,13.45
2022-10-19T01:39:05.514Z,13.45
2022-10-19T01:40:30.431Z,13.60
2022-10-19T01:41:38.455Z,13.68
2022-10-19T01:43:03.005Z,13.76
2022-10-19T01:44:33.099Z,13.74
2022-10-19T01:45:44.979Z,13.76
2022-10-19T01:46:55.295Z,13.78
2022-10-19T01:48:06.952Z,13.83
2022-10-19T01:49:38.159Z,13.88
2022-10-19T01:50:55.633Z,13.89
2022-10-19T01:52:01.795Z,13.92
2022-10-19T01:53:07.938Z,13.98
2022-10-19T01:54:14.017Z,13.85
2022-10-19T01:55:18.867Z,13.79
2022-10-19T01:56:25.270Z,13.74
2022-10-19T01:57:36.375Z,13.74
2022-10-19T01:58:43.077Z,13.83
2022-10-19T01:59:47.210Z,13.83
2022-10-19T02:00:52.893Z,13.81
2022-10-19T02:01:55.948Z,13.81
2022-10-19T02:03:00.490Z,13.83
2022-10-19T02:04:03.821Z,13.84
2022-10-19T02:05:07.723Z,13.95
2022-10-19T02:06:11.466Z,13.96
2022-10-19T02:07:14.034Z,14.01
2022-10-19T02:08:24.475Z,14.06
2022-10-19T02:09:26.697Z,14.04
2022-10-19T02:10:31.054Z,14.08
2022-10-19T02:11:35.697Z,13.96
2022-10-19T02:12:38.149Z,13.98
2022-10-19T02:13:42.624Z,14.01
2022-10-19T02:14:47.514Z,13.95
2022-10-19T02:15:52.885Z,13.89
2022-10-19T02:17:02.369Z,13.80
2022-10-19T02:18:06.966Z,13.83
2022-10-19T02:19:11.716Z,13.70
2022-10-19T02:20:15.591Z,13.66
2022-10-19T02:21:18.668Z,13.66
2022-10-19T02:22:21.455Z,13.65
2022-10-19T02:23:26.548Z,13.71
2022-10-19T02:24:28.756Z,13.77
2022-10-19T02:25:31.564Z,13.84
2022-10-19T02:26:34.220Z,13.91
2022-10-19T02:27:39.682Z,13.91
2022-10-19T02:28:41.870Z,13.93
2022-10-19T02:29:44.042Z,14.00
2022-10-19T02:30:46.296Z,13.99
2022-10-19T02:31:48.977Z,14.00
2022-10-19T02:32:51.534Z,13.97
2022-10-19T02:33:54.364Z,13.97
2022-10-19T02:34:57.071Z,14.00
2022-10-19T02:36:00.030Z,14.02
2022-10-19T02:37:02.255Z,13.97
2022-10-19T02:38:07.325Z,13.95
2022-10-19T02:39:09.892Z,13.96
2022-10-19T02:40:12.504Z,13.92
2022-10-19T02:41:20.639Z,13.90
2022-10-19T02:42:32.990Z,13.91
2022-10-19T02:43:39.303Z,13.91
2022-10-19T02:45:00.094Z,13.83
2022-10-19T02:46:20.375Z,13.80
2022-10-19T02:47:27.708Z,13.75
2022-10-19T02:48:33.198Z,13.78
2022-10-19T02:49:37.567Z,13.77
2022-10-19T02:50:44.227Z,13.81
2022-10-19T02:52:07.122Z,13.79
2022-10-19T02:53:09.313Z,13.70
2022-10-19T02:54:11.459Z,13.62
2022-10-19T02:55:13.705Z,13.63
2022-10-19T02:56:15.867Z,13.66
2022-10-19T02:57:20.901Z,13.61
2022-10-19T02:58:23.134Z,13.48
2022-10-19T02:59:25.547Z,13.42
2022-10-19T03:00:27.676Z,13.33
2022-10-19T03:01:30.058Z,13.44
2022-10-19T03:02:32.253Z,13.57
2022-10-19T03:03:34.419Z,13.50
2022-10-19T03:04:36.752Z,13.50
2022-10-19T03:05:39.351Z,13.61
2022-10-19T03:06:41.870Z,13.47
2022-10-19T03:07:44.038Z,13.47
2022-10-19T03:08:46.362Z,13.28
2022-10-19T03:09:49.204Z,13.17
2022-10-19T03:10:51.358Z,13.13
2022-10-19T03:11:55.397Z,13.17
2022-10-19T03:12:58.246Z,13.26
2022-10-19T03:14:00.437Z,13.23
2022-10-19T03:15:02.651Z,13.18
2022-10-19T03:16:10.216Z,13.22
2022-10-19T03:17:12.456Z,13.28
2022-10-19T03:18:17.233Z,13.33
2022-10-19T03:19:19.441Z,13.31
2022-10-19T03:20:21.600Z,13.30
2022-10-19T03:21:23.834Z,13.45
2022-10-19T03:22:26.018Z,13.47
2022-10-19T03:23:29.192Z,13.49
2022-10-19T03:24:32.138Z,13.51
2022-10-19T03:25:34.350Z,13.49
2022-10-19T03:26:37.325Z,13.52
2022-10-19T03:27:39.510Z,13.50
2022-10-19T03:28:42.200Z,13.42
2022-10-19T03:29:44.854Z,13.40
2022-10-19T03:30:47.260Z,13.44
2022-10-19T03:31:49.525Z,13.43
2022-10-19T03:32:51.724Z,13.39
2022-10-19T03:33:53.935Z,13.40
2022-10-19T03:34:56.139Z,13.46
2022-10-19T03:36:25.397Z,13.52
2022-10-19T03:37:27.517Z,13.43
2022-10-19T03:38:29.700Z,13.35
2022-10-19T03:39:31.844Z,13.35
2022-10-19T03:40:34.067Z,13.26
2022-10-19T03:41:37.179Z,13.25
2022-10-19T03:42:39.323Z,13.15
2022-10-19T03:43:41.497Z,13.23
2022-10-19T03:44:43.678Z,13.24
2022-10-19T03:45:46.401Z,13.26
2022-10-19T03:46:48.546Z,13.26
2022-10-19T03:47:51.747Z,13.44
2022-10-19T03:48:54.138Z,13.42
2022-10-19T03:49:56.331Z,13.54
2022-10-19T03:51:06.383Z,13.57
2022-10-19T03:52:10.011Z,13.60
2022-10-19T03:53:12.270Z,13.56
2022-10-19T03:54:16.655Z,13.44
2022-10-19T03:55:18.833Z,13.41
2022-10-19T03:56:23.790Z,13.38
2022-10-19T03:57:26.001Z,13.29
2022-10-19T03:58:28.186Z,13.31
2022-10-19T03:59:30.450Z,13.34
2022-10-19T04:00:32.608Z,13.37
2022-10-19T04:01:37.892Z,13.41
2022-10-19T04:02:40.096Z,13.38
2022-10-19T04:03:42.355Z,13.41
2022-10-19T04:04:44.545Z,13.39
2022-10-19T04:05:46.766Z,13.33
2022-10-19T04:06:50.196Z,13.36
2022-10-19T04:07:52.390Z,13.47
2022-10-19T04:08:54.817Z,13.56
2022-10-19T04:09:57.087Z,13.53
2022-10-19T04:11:10.835Z,13.37
2022-10-19T04:12:13.011Z,13.30
2022-10-19T04:13:15.875Z,13.31
2022-10-19T04:14:31.805Z,13.26
2022-10-19T04:15:35.099Z,13.23
2022-10-19T04:16:37.291Z,13.25
2022-10-19T04:17:39.483Z,13.24
2022-10-19T04:18:41.696Z,13.31
2022-10-19T04:19:43.855Z,13.36
2022-10-19T04:20:46.055Z,13.35
2022-10-19T04:21:49.105Z,13.35
2022-10-19T04:22:54.295Z,13.38
2022-10-19T04:24:14.270Z,13.42
2022-10-19T04:25:16.603Z,13.44
2022-10-19T04:26:18.989Z,13.40
2022-10-19T04:27:21.136Z,13.51
2022-10-19T04:28:23.354Z,13.54
2022-10-19T04:29:29.668Z,13.54
2022-10-19T04:30:32.199Z,13.51
2022-10-19T04:31:34.690Z,13.59
2022-10-19T04:32:36.874Z,13.67
2022-10-19T04:33:40.074Z,13.75
2022-10-19T04:34:42.366Z,13.79
2022-10-19T04:35:44.561Z,13.76
2022-10-19T04:36:46.698Z,13.73
2022-10-19T04:37:48.887Z,13.64
2022-10-19T04:38:51.578Z,13.62
2022-10-19T04:39:53.767Z,13.66
2022-10-19T04:40:56.257Z,13.58
2022-10-19T04:41:58.468Z,13.58
2022-10-19T04:43:00.601Z,13.57
2022-10-19T04:44:06.505Z,13.62
2022-10-19T04:45:09.086Z,13.68
2022-10-19T04:46:14.119Z,13.56
2022-10-19T04:47:16.295Z,13.53
2022-10-19T04:48:18.539Z,13.55
2022-10-19T04:49:20.789Z,13.59
2022-10-19T04:50:24.303Z,13.60
2022-10-19T04:51:31.343Z,13.62
2022-10-19T04:52:35.128Z,13.58
2022-10-19T04:53:40.593Z,13.55
2022-10-19T04:54:42.778Z,13.47
2022-10-19T04:55:44.957Z,13.51
2022-10-19T04:56:47.110Z,13.55
2022-10-19T04:57:49.300Z,13.60
2022-10-19T04:58:54.853Z,13.68
2022-10-19T04:59:57.018Z,13.66
2022-10-19T05:00:59.203Z,13.57
2022-10-19T05:02:01.404Z,13.52
2022-10-19T05:03:03.577Z,13.54
2022-10-19T05:04:05.751Z,13.55
2022-10-19T05:05:08.979Z,13.48
2022-10-19T05:06:12.594Z,13.45
2022-10-19T05:07:14.781Z,13.38
2022-10-19T05:08:17.075Z,13.36
2022-10-19T05:09:19.263Z,13.36
2022-10-19T05:10:21.577Z,13.37
2022-10-19T05:11:24.115Z,13.44
2022-10-19T05:12:26.314Z,13.54
2022-10-19T05:13:28.505Z,13.57
2022-10-19T05:14:35.002Z,13.68
2022-10-19T05:15:38.947Z,13.55
2022-10-19T05:16:41.283Z,13.51
2022-10-19T05:17:43.443Z,13.47
2022-10-19T05:18:50.046Z,13.46
2022-10-19T05:19:52.228Z,13.38
2022-10-19T05:21:21.721Z,13.27
2022-10-19T05:22:24.697Z,13.26
2022-10-19T05:23:27.066Z,13.25
2022-10-19T05:24:29.281Z,13.27
2022-10-19T05:25:31.429Z,13.28
2022-10-19T05:26:33.675Z,13.20
2022-10-19T05:27:36.164Z,13.18
2022-10-19T05:28:39.485Z,13.17
2022-10-19T05:29:41.675Z,13.10
2022-10-19T05:30:48.843Z,13.06
2022-10-19T05:31:51.379Z,13.05
2022-10-19T05:32:53.571Z,13.13
2022-10-19T05:33:56.261Z,13.09
2022-10-19T05:34:58.694Z,13.06
2022-10-19T05:36:16.920Z,13.09
2022-10-19T05:37:19.215Z,13.04
2022-10-19T05:38:21.625Z,13.07
2022-10-19T05:39:23.823Z,13.03
2022-10-19T05:40:25.986Z,13.04
2022-10-19T05:41:28.474Z,13.06
2022-10-19T05:42:30.702Z,13.04
2022-10-19T05:43:33.043Z,13.02
2022-10-19T05:44:35.897Z,13.02
2022-10-19T05:45:38.126Z,12.97
2022-10-19T05:46:40.539Z,12.96
2022-10-19T05:47:42.699Z,12.95
2022-10-19T05:48:46.262Z,12.97
2022-10-19T05:49:48.441Z,12.98
2022-10-19T05:50:54.857Z,12.90
2022-10-19T05:51:57.070Z,12.91
2022-10-19T05:52:59.286Z,12.97
2022-10-19T05:54:01.516Z,12.90
2022-10-19T05:55:03.875Z,12.92
2022-10-19T05:56:07.928Z,12.94
2022-10-19T05:57:10.172Z,12.94
2022-10-19T05:58:12.349Z,12.93
2022-10-19T05:59:17.654Z,12.83
2022-10-19T06:00:19.801Z,12.90
2022-10-19T06:01:22.008Z,12.86
2022-10-19T06:02:24.607Z,12.79
2022-10-19T06:03:27.772Z,12.86
2022-10-19T06:04:30.143Z,12.80
2022-10-19T06:05:32.307Z,12.89
2022-10-19T06:06:34.581Z,12.92
2022-10-19T06:07:37.116Z,12.96
2022-10-19T06:08:39.594Z,12.94
2022-10-19T06:09:41.780Z,12.96
2022-10-19T06:10:45.129Z,12.88
2022-10-19T06:11:47.866Z,12.91
2022-10-19T06:12:50.010Z,12.99
2022-10-19T06:13:55.324Z,13.04
2022-10-19T06:14:57.438Z,13.03
2022-10-19T06:15:59.589Z,12.98
2022-10-19T06:17:01.743Z,13.01
2022-10-19T06:18:04.635Z,13.09
2022-10-19T06:19:06.832Z,13.09
2022-10-19T06:20:09.532Z,13.09
2022-10-19T06:21:15.571Z,13.06
2022-10-19T06:22:18.846Z,13.10
2022-10-19T06:23:21.000Z,13.05
2022-10-19T06:24:23.398Z,13.08
2022-10-19T06:25:25.621Z,13.05
2022-10-19T06:26:28.666Z,13.12
2022-10-19T06:27:32.410Z,13.13
2022-10-19T06:28:36.485Z,13.16
2022-10-19T06:29:38.627Z,13.22
2022-10-19T06:30:41.460Z,13.30
2022-10-19T06:31:47.662Z,13.20
2022-10-19T06:32:49.954Z,13.31
2022-10-19T06:33:52.238Z,13.30
2022-10-19T06:34:56.679Z,13.33
2022-10-19T06:36:06.993Z,13.31
2022-10-19T06:37:09.154Z,13.41
2022-10-19T06:38:13.681Z,13.48
2022-10-19T06:39:15.969Z,13.44
2022-10-19T06:40:18.227Z,13.52
2022-10-19T06:41:20.888Z,13.54
2022-10-19T06:42:23.012Z,13.62
2022-10-19T06:43:25.426Z,13.61
2022-10-19T06:44:27.594Z,13.63
2022-10-19T06:45:34.825Z,13.52
2022-10-19T06:46:38.385Z,13.54
2022-10-19T06:47:40.720Z,13.57
2022-10-19T06:48:43.192Z,13.61
2022-10-19T06:49:45.395Z,13.48
2022-10-19T06:50:55.963Z,13.54
2022-10-19T06:51:58.139Z,13.55
2022-10-19T06:53:00.320Z,13.48
2022-10-19T06:54:02.776Z,13.54
2022-10-19T06:55:05.440Z,13.61
2022-10-19T06:56:08.080Z,13.57
2022-10-19T06:57:10.435Z,13.61
2022-10-19T06:58:12.953Z,13.60
2022-10-19T06:59:15.344Z,13.58
2022-10-19T07:00:17.608Z,13.64
2022-10-19T07:01:20.100Z,13.76
2022-10-19T07:02:22.748Z,13.91
2022-10-19T07:03:25.743Z,13.96
2022-10-19T07:04:27.987Z,13.97
2022-10-19T07:05:30.295Z,13.93
2022-10-19T07:06:32.480Z,13.92
2022-10-19T07:07:35.204Z,13.99
2022-10-19T07:08:38.825Z,14.14
2022-10-19T07:09:41.052Z,13.92
2022-10-19T07:10:43.256Z,13.95
2022-10-19T07:11:46.320Z,13.91
2022-10-19T07:12:48.596Z,13.79
2022-10-19T07:13:52.477Z,13.64
2022-10-19T07:14:55.530Z,13.70
2022-10-19T07:15:59.696Z,13.70
2022-10-19T07:17:01.945Z,13.66
2022-10-19T07:18:04.200Z,13.67
2022-10-19T07:19:06.389Z,13.68
2022-10-19T07:20:10.614Z,13.70
2022-10-19T07:21:15.375Z,13.67
2022-10-19T07:22:23.143Z,13.67
2022-10-19T07:23:29.404Z,13.76
2022-10-19T07:24:31.592Z,13.83
2022-10-19T07:25:33.967Z,13.80
2022-10-19T07:26:36.427Z,13.80
2022-10-19T07:27:40.347Z,13.78
2022-10-19T07:28:44.902Z,13.89
2022-10-19T07:29:47.052Z,13.87
2022-10-19T07:30:49.289Z,13.84
2022-10-19T07:31:51.478Z,13.92
2022-10-19T07:32:53.671Z,13.86
2022-10-19T07:33:58.130Z,13.84
2022-10-19T07:35:00.426Z,13.94
2022-10-19T07:36:05.792Z,13.91
2022-10-19T07:37:07.933Z,13.84
2022-10-19T07:38:10.276Z,13.85
2022-10-19T07:39:13.083Z,13.85
2022-10-19T07:40:15.312Z,13.88
2022-10-19T07:41:19.735Z,13.84
2022-10-19T07:43:29.304Z,13.91
2022-10-19T07:44:31.422Z,13.95
2022-10-19T07:45:33.643Z,13.89
2022-10-19T07:46:37.077Z,13.80
2022-10-19T07:47:39.293Z,13.83
2022-10-19T07:48:42.073Z,13.88
2022-10-19T07:49:44.485Z,14.02
2022-10-19T07:50:49.438Z,14.06
2022-10-19T07:51:54.066Z,14.13
2022-10-19T07:52:56.464Z,14.11
2022-10-19T07:53:59.276Z,14.18
2022-10-19T07:55:01.546Z,14.17
2022-10-19T07:56:07.999Z,14.28
2022-10-19T07:57:12.330Z,14.26
2022-10-19T07:58:14.485Z,14.25
2022-10-19T07:59:17.258Z,14.27
2022-10-19T08:00:19.570Z,14.08
2022-10-19T08:01:24.452Z,14.21
2022-10-19T08:02:30.957Z,14.12
2022-10-19T08:04:31.779Z,14.08
2022-10-19T08:05:07.616Z,14.23
2022-10-19T08:06:16.480Z,14.22
2022-10-19T08:07:18.622Z,14.24
2022-10-19T08:08:20.766Z,14.42
2022-10-19T08:09:47.763Z,14.16
2022-10-19T08:10:45.199Z,14.19
2022-10-19T08:11:47.415Z,14.22
2022-10-19T08:12:49.600Z,14.29
2022-10-19T08:13:52.505Z,14.25
2022-10-19T08:14:54.641Z,14.23
2022-10-19T08:15:56.777Z,14.29
2022-10-19T08:16:59.014Z,14.03
2022-10-19T08:18:01.373Z,13.99
2022-10-19T08:19:07.077Z,13.99
2022-10-19T08:20:09.631Z,13.94
2022-10-19T08:21:11.777Z,14.17
2022-10-19T08:22:14.106Z,14.19
2022-10-19T08:23:16.387Z,14.13
2022-10-19T08:24:20.243Z,14.09
2022-10-19T08:25:22.520Z,14.03
2022-10-19T08:26:25.549Z,13.91
2022-10-19T08:27:29.029Z,13.92
2022-10-19T08:28:31.235Z,13.86
2022-10-19T08:29:33.361Z,13.92
2022-10-19T08:30:36.832Z,13.98
2022-10-19T08:31:39.895Z,14.11
2022-10-19T08:32:42.950Z,14.20
2022-10-19T08:33:45.606Z,14.27
2022-10-19T08:34:47.742Z,14.04
2022-10-19T08:35:49.936Z,14.13
2022-10-19T08:36:52.886Z,14.05
2022-10-19T08:37:57.270Z,14.19
2022-10-19T08:39:02.097Z,14.29
2022-10-19T08:40:05.068Z,14.28
2022-10-19T08:41:23.033Z,14.24
2022-10-19T08:42:47.733Z,14.18
2022-10-19T08:44:16.449Z,13.89
2022-10-19T08:45:30.526Z,13.66
2022-10-19T08:46:54.262Z,13.68
2022-10-19T08:48:04.491Z,13.78
2022-10-19T08:49:10.037Z,13.76
2022-10-19T08:50:42.422Z,13.88
2022-10-19T08:51:49.541Z,13.84
2022-10-19T08:53:03.883Z,13.80
2022-10-19T08:54:12.335Z,13.81
2022-10-19T08:55:21.577Z,13.90
2022-10-19T08:56:49.849Z,13.94
2022-10-19T08:58:02.895Z,13.94
2022-10-19T08:59:32.230Z,13.96
2022-10-19T09:01:11.233Z,13.96
2022-10-19T09:02:32.653Z,14.07
2022-10-19T09:03:56.146Z,14.09
2022-10-19T09:05:05.561Z,14.17
2022-10-19T09:06:25.729Z,14.06
2022-10-19T09:07:34.057Z,14.09
2022-10-19T09:08:38.662Z,14.11
2022-10-19T09:09:53.956Z,14.14
2022-10-19T09:10:57.265Z,14.26
2022-10-19T09:12:05.778Z,14.33
2022-10-19T09:13:36.411Z,14.58
2022-10-19T09:14:58.059Z,14.66
2022-10-19T09:16:00.951Z,14.80
2022-10-19T09:17:10.623Z,14.85
2022-10-19T09:18:22.221Z,14.83
2022-10-19T09:19:29.945Z,14.81
2022-10-19T09:20:38.115Z,14.79
2022-10-19T09:22:01.811Z,15.00
2022-10-19T09:23:19.850Z,15.02
2022-10-19T09:24:48.853Z,15.26
2022-10-19T09:25:51.742Z,15.42
2022-10-19T09:26:57.341Z,15.55
2022-10-19T09:28:14.892Z,15.33
2022-10-19T09:29:22.957Z,15.62
2022-10-19T09:30:25.193Z,15.76
2022-10-19T09:31:38.202Z,15.50
2022-10-19T09:32:42.828Z,15.20
2022-10-19T09:33:52.081Z,15.08
2022-10-19T09:34:58.736Z,15.19
2022-10-19T09:36:03.332Z,15.22
2022-10-19T09:37:05.795Z,15.04
2022-10-19T09:38:10.531Z,15.08
2022-10-19T09:39:13.833Z,15.12
2022-10-19T09:40:22.578Z,15.45
2022-10-19T09:41:25.168Z,15.56
2022-10-19T09:42:36.810Z,15.59
2022-10-19T09:43:39.358Z,15.53
2022-10-19T09:44:41.627Z,15.17
2022-10-19T09:45:46.427Z,14.97
2022-10-19T09:46:53.498Z,14.90
2022-10-19T09:47:58.274Z,14.84
2022-10-19T09:49:04.646Z,14.75
2022-10-19T09:50:09.627Z,14.78
2022-10-19T09:51:14.736Z,14.68
2022-10-19T09:52:24.305Z,14.49
2022-10-19T09:53:28.018Z,14.51
2022-10-19T09:54:38.687Z,14.52
2022-10-19T09:56:55.990Z,14.68
2022-10-19T09:58:04.479Z,14.74
2022-10-19T09:59:22.181Z,14.84
2022-10-19T10:00:37.198Z,15.01
2022-10-19T10:01:43.539Z,14.97
2022-10-19T10:02:55.317Z,15.11
2022-10-19T10:04:08.119Z,15.10
2022-10-19T10:05:15.166Z,14.97
2022-10-19T10:06:17.875Z,15.07
2022-10-19T10:07:20.159Z,14.93
2022-10-19T10:08:29.582Z,15.07
2022-10-19T10:09:38.049Z,15.00
2022-10-19T10:10:45.705Z,15.03
2022-10-19T10:11:50.759Z,14.98
2022-10-19T10:12:53.294Z,14.99
2022-10-19T10:13:57.587Z,15.21
2022-10-19T10:14:59.840Z,15.44
2022-10-19T10:16:06.079Z,15.91
2022-10-19T10:17:20.877Z,16.18
2022-10-19T10:18:25.075Z,16.50
2022-10-19T10:19:29.322Z,16.21
2022-10-19T10:20:32.489Z,16.17
2022-10-19T10:21:45.535Z,16.10
2022-10-19T10:22:57.915Z,16.23
2022-10-19T10:24:17.585Z,16.06
2022-10-19T10:25:21.483Z,15.97
2022-10-19T10:26:25.991Z,15.93
2022-10-19T10:27:34.742Z,16.03
2022-10-19T10:28:47.453Z,16.09
2022-10-19T10:31:06.237Z,15.97
2022-10-19T10:32:16.221Z,15.98
2022-10-19T10:33:40.426Z,16.10
2022-10-19T10:35:00.757Z,15.99
2022-10-19T10:36:08.315Z,15.89
2022-10-19T10:37:36.124Z,16.03
2022-10-19T10:38:51.987Z,16.31
2022-10-19T10:39:59.172Z,16.06
2022-10-19T10:41:15.562Z,16.16
2022-10-19T10:42:22.140Z,15.83
2022-10-19T10:43:32.445Z,15.69
2022-10-19T10:44:36.674Z,15.55
2022-10-19T10:45:46.198Z,15.63
2022-10-19T10:46:58.288Z,15.75
2022-10-19T10:48:27.071Z,15.98
2022-10-19T10:49:34.986Z,15.79
2022-10-19T10:50:37.524Z,15.73
2022-10-19T10:51:49.213Z,15.88
2022-10-19T10:53:00.762Z,15.79
2022-10-19T10:54:19.543Z,15.73
2022-10-19T10:55:21.757Z,15.88
2022-10-19T10:56:33.549Z,15.96
2022-10-19T10:57:43.375Z,16.00
2022-10-19T10:58:55.868Z,16.03
2022-10-19T11:00:13.448Z,16.05
2022-10-19T11:01:20.519Z,16.12
2022-10-19T11:02:36.604Z,16.41
2022-10-19T11:03:46.314Z,16.04
2022-10-19T11:05:00.485Z,15.98
2022-10-19T11:06:02.784Z,16.06
2022-10-19T11:07:18.220Z,15.97
2022-10-19T11:08:41.500Z,16.20
2022-10-19T11:09:50.742Z,16.24
2022-10-19T11:11:15.648Z,16.01
2022-10-19T11:12:23.954Z,16.14
2022-10-19T11:13:48.938Z,16.16
2022-10-19T11:15:00.680Z,16.09
2022-10-19T11:16:12.503Z,16.06
2022-10-19T11:17:21.173Z,16.02
2022-10-19T11:18:32.173Z,15.89
2022-10-19T11:19:39.402Z,16.00
2022-10-19T11:20:53.189Z,16.10
2022-10-19T11:22:13.357Z,16.11
2022-10-19T11:23:35.619Z,16.13
2022-10-19T11:25:01.850Z,16.07
2022-10-19T11:26:15.422Z,16.24
2022-10-19T11:27:23.278Z,16.40
2022-10-19T11:28:25.360Z,16.46
2022-10-19T11:29:55.598Z,16.27
2022-10-19T11:31:19.222Z,16.43
2022-10-19T11:32:40.030Z,16.37
2022-10-19T11:33:49.223Z,16.55
2022-10-19T11:35:33.069Z,16.52
2022-10-19T11:36:59.213Z,16.62
2022-10-19T11:38:33.493Z,16.86
2022-10-19T11:39:43.045Z,16.74
2022-10-19T11:41:16.772Z,16.71
2022-10-19T11:43:04.873Z,16.75
2022-10-19T11:44:12.787Z,16.74
2022-10-19T11:45:41.626Z,16.52
2022-10-19T11:46:54.368Z,16.33
2022-10-19T11:48:28.457Z,16.49
2022-10-19T11:49:59.505Z,16.63
2022-10-19T11:51:23.115Z,16.69
2022-10-19T11:52:49.400Z,16.86
2022-10-19T11:54:14.542Z,16.78
2022-10-19T11:55:27.542Z,16.81
2022-10-19T11:57:02.469Z,16.70
2022-10-19T11:58:34.475Z,16.84
2022-10-19T11:59:49.300Z,16.83
2022-10-19T12:01:15.928Z,16.68
2022-10-19T12:02:50.809Z,16.47
2022-10-19T12:04:21.655Z,16.53
2022-10-19T12:05:40.911Z,16.52
2022-10-19T12:07:17.564Z,16.56
2022-10-19T12:08:41.766Z,16.58
2022-10-19T12:09:50.519Z,16.73
2022-10-19T12:11:11.344Z,16.65
2022-10-19T12:12:33.909Z,16.85
2022-10-19T12:13:44.642Z,16.86
2022-10-19T12:14:52.612Z,16.89
2022-10-19T12:15:57.907Z,16.84
2022-10-19T12:17:07.886Z,17.02
2022-10-19T12:18:27.947Z,17.31
2022-10-19T12:19:36.915Z,17.42
2022-10-19T12:20:45.799Z,17.52
2022-10-19T12:21:48.666Z,17.63
2022-10-19T12:22:51.150Z,17.86
2022-10-19T12:23:55.139Z,18.07
2022-10-19T12:25:01.883Z,18.25
2022-10-19T12:26:08.448Z,18.13
2022-10-19T12:27:16.324Z,18.18
2022-10-19T12:28:35.300Z,17.91
2022-10-19T12:29:41.175Z,17.80
2022-10-19T12:30:43.518Z,18.15
2022-10-19T12:31:50.200Z,18.28
2022-10-19T12:33:14.431Z,18.40
2022-10-19T12:34:27.566Z,18.29
2022-10-19T12:35:47.168Z,18.66
2022-10-19T12:36:58.870Z,18.78
2022-10-19T12:38:19.617Z,18.68
2022-10-19T12:39:46.233Z,18.74
2022-10-19T12:41:10.571Z,18.64
2022-10-19T12:42:53.046Z,18.50
2022-10-19T12:44:26.230Z,18.47
2022-10-19T12:45:35.772Z,18.33
2022-10-19T12:46:51.736Z,18.52
2022-10-19T12:48:07.819Z,18.49
2022-10-19T12:49:36.523Z,18.48
2022-10-19T12:50:51.015Z,18.28
2022-10-19T12:51:55.023Z,18.54
2022-10-19T12:52:57.209Z,18.67
2022-10-19T12:54:09.530Z,18.71
2022-10-19T12:55:17.495Z,18.55
2022-10-19T12:56:24.076Z,18.09
2022-10-19T12:57:29.551Z,17.99
2022-10-19T12:58:47.458Z,18.12
2022-10-19T13:00:00.571Z,18.25
2022-10-19T13:01:05.468Z,17.99
2022-10-19T13:02:26.571Z,17.96
2022-10-19T13:03:38.114Z,18.24
2022-10-19T13:04:53.295Z,18.45
2022-10-19T13:05:58.255Z,18.47
2022-10-19T13:07:05.003Z,18.35
2022-10-19T13:08:10.739Z,18.49
2022-10-19T13:09:43.687Z,18.68
2022-10-19T13:11:03.652Z,18.79
2022-10-19T13:12:27.110Z,18.61
2022-10-19T13:13:56.892Z,18.64
2022-10-19T13:15:01.161Z,18.66
2022-10-19T13:16:28.997Z,18.17
2022-10-19T13:17:34.301Z,18.25
2022-10-19T13:19:13.319Z,18.63
2022-10-19T13:20:15.631Z,18.66
2022-10-19T13:21:44.049Z,18.67
2022-10-19T13:22:48.890Z,18.67
2022-10-19T13:23:51.092Z,18.64
2022-10-19T13:25:21.421Z,18.47
2022-10-19T13:26:32.801Z,18.31
2022-10-19T13:27:37.389Z,18.35
2022-10-19T13:28:52.914Z,18.31
2022-10-19T13:29:55.849Z,18.50
2022-10-19T13:31:04.957Z,18.50
2022-10-19T13:32:43.183Z,18.47
2022-10-19T13:33:47.083Z,18.60
2022-10-19T13:34:49.622Z,18.80
2022-10-19T13:36:00.615Z,18.99
2022-10-19T13:37:04.153Z,19.05
2022-10-19T13:38:08.997Z,19.05
2022-10-19T13:39:13.849Z,18.64
2022-10-19T13:40:24.488Z,18.69
2022-10-19T13:41:44.473Z,19.14
2022-10-19T13:42:46.720Z,18.94
2022-10-19T13:43:55.214Z,18.88
2022-10-19T13:44:57.618Z,18.54
2022-10-19T13:46:19.796Z,18.48
2022-10-19T13:47:34.657Z,18.23
2022-10-19T13:48:42.858Z,17.93
2022-10-19T13:50:12.645Z,17.97
2022-10-19T13:51:31.778Z,18.11
2022-10-19T13:53:02.983Z,17.91
2022-10-19T13:54:37.240Z,17.96
2022-10-19T13:56:09.406Z,17.80
2022-10-19T13:57:33.665Z,17.93
2022-10-19T13:59:10.392Z,17.95
2022-10-19T14:00:19.662Z,17.90
2022-10-19T14:01:55.995Z,17.91
2022-10-19T14:02:58.183Z,17.88
2022-10-19T14:04:21.793Z,17.88
2022-10-19T14:05:42.947Z,17.85
2022-10-19T14:06:53.217Z,17.80
2022-10-19T14:08:01.507Z,17.81
2022-10-19T14:09:22.592Z,17.63
2022-10-19T14:10:32.888Z,17.52
2022-10-19T14:11:39.742Z,17.70
2022-10-19T14:12:43.666Z,17.85
2022-10-19T14:13:46.844Z,17.90
2022-10-19T14:14:51.893Z,17.89
2022-10-19T14:15:56.760Z,17.97
2022-10-19T14:17:04.213Z,17.77
2022-10-19T14:18:28.765Z,17.82
2022-10-19T14:19:52.255Z,18.22
2022-10-19T14:21:10.148Z,18.11
2022-10-19T14:22:25.996Z,18.31
2022-10-19T14:23:31.778Z,18.11
2022-10-19T14:24:35.656Z,18.15
2022-10-19T14:25:37.961Z,18.01
2022-10-19T14:26:40.699Z,17.83
2022-10-19T14:27:43.413Z,17.82
2022-10-19T14:28:50.968Z,17.72
2022-10-19T14:29:54.189Z,17.67
2022-10-19T14:31:01.357Z,17.59
2022-10-19T14:32:04.344Z,17.72
2022-10-19T14:33:09.526Z,17.73
2022-10-19T14:34:14.231Z,17.54
2022-10-19T14:35:29.101Z,17.46
2022-10-19T14:36:36.774Z,17.51
2022-10-19T14:37:43.855Z,17.55
2022-10-19T14:38:48.186Z,17.49
2022-10-19T14:40:00.935Z,17.51
2022-10-19T14:41:05.547Z,17.47